createdAt,value
2017-04-02T00:35:33.264Z,58.02
2017-04-02T00:36:28.743Z,58.79
2017-04-02T00:37:28.896Z,58.74
2017-04-02T00:38:27.303Z,58.71
2017-04-02T00:39:34.053Z,58.69
2017-04-02T00:40:28.398Z,58.83
2017-04-02T00:41:24.481Z,58.76
2017-04-02T00:42:29.153Z,58.84
2017-04-02T00:43:28.247Z,58.90
2017-04-02T00:44:31.175Z,59.07
2017-04-02T00:45:28.411Z,59.78
2017-04-02T00:46:33.504Z,60.42
2017-04-02T00:47:38.465Z,60.67
2017-04-02T00:48:28.209Z,61.19
2017-04-02T00:49:43.181Z,61.36
2017-04-02T00:50:32.684Z,61.41
2017-04-02T00:51:25.659Z,61.39
2017-04-02T00:52:28.765Z,61.44
2017-04-02T00:53:27.960Z,61.68
2017-04-02T00:55:28.927Z,62.28
2017-04-02T00:56:29.336Z,62.16
2017-04-02T00:57:26.701Z,62.72
2017-04-02T01:02:28.959Z,63.10
2017-04-02T01:03:28.220Z,63.32
2017-04-02T01:04:25.638Z,63.26
2017-04-02T01:05:42.141Z,63.11
2017-04-02T01:06:38.715Z,63.78
2017-04-02T01:07:34.793Z,63.70
2017-04-02T01:08:44.186Z,63.47
2017-04-02T01:11:40.843Z,63.44
2017-04-02T01:20:26.808Z,64.09
2017-04-02T01:21:30.669Z,64.09
2017-04-02T01:22:28.611Z,64.41
2017-04-02T01:23:27.529Z,64.75
2017-04-02T01:24:27.122Z,64.61
2017-04-02T01:25:27.998Z,64.29
2017-04-02T01:26:26.362Z,64.11
2017-04-02T01:27:29.291Z,63.89
2017-04-02T01:28:30.585Z,63.82
2017-04-02T01:29:28.740Z,64.02
2017-04-02T01:30:31.103Z,64.28
2017-04-02T01:31:39.594Z,64.70
2017-04-02T01:32:27.339Z,64.53
2017-04-02T01:38:32.559Z,64.90
2017-04-02T01:42:33.510Z,64.98
2017-04-02T01:43:33.842Z,65.07
2017-04-02T01:44:27.633Z,64.99
2017-04-02T01:45:26.384Z,65.13
2017-04-02T01:46:28.190Z,64.85
2017-04-02T01:47:33.315Z,64.68
2017-04-02T01:48:26.236Z,64.54
2017-04-02T01:49:33.991Z,64.65
2017-04-02T01:50:38.694Z,64.50
2017-04-02T01:51:28.457Z,64.41
2017-04-02T01:52:25.529Z,64.46
2017-04-02T01:53:35.351Z,64.70
2017-04-02T01:54:24.408Z,64.62
2017-04-02T01:55:33.501Z,65.07
2017-04-02T01:56:28.151Z,65.09
2017-04-02T01:57:28.490Z,65.34
2017-04-02T01:58:25.405Z,65.22
2017-04-02T01:59:34.108Z,65.05
2017-04-02T02:00:31.443Z,64.68
2017-04-02T02:01:37.779Z,64.44
2017-04-02T02:02:21.514Z,64.44
2017-04-02T02:03:29.670Z,64.84
2017-04-02T02:04:28.779Z,64.89
2017-04-02T02:05:27.388Z,64.99
2017-04-02T02:06:27.630Z,64.63
2017-04-02T02:07:27.710Z,64.73
2017-04-02T02:08:30.347Z,64.77
2017-04-02T02:09:28.444Z,64.85
2017-04-02T02:10:21.040Z,64.76
2017-04-02T02:11:28.364Z,65.06
2017-04-02T02:12:28.506Z,65.12
2017-04-02T02:13:43.270Z,65.07
2017-04-02T02:16:25.386Z,65.49
2017-04-02T02:17:33.771Z,65.25
2017-04-02T02:18:28.273Z,65.40
2017-04-02T02:19:37.917Z,65.40
2017-04-02T02:20:33.266Z,65.14
2017-04-02T02:21:26.294Z,65.82
2017-04-02T02:22:28.145Z,65.63
2017-04-02T02:23:24.993Z,66.01
2017-04-02T02:24:33.305Z,65.50
2017-04-02T02:25:26.417Z,65.58
2017-04-02T02:26:27.497Z,65.79
2017-04-02T02:27:33.491Z,66.07
2017-04-02T02:28:32.810Z,65.90
2017-04-02T02:29:28.548Z,65.64
2017-04-02T02:30:28.105Z,65.47
2017-04-02T02:31:28.326Z,65.68
2017-04-02T02:32:28.804Z,65.94
2017-04-02T02:33:28.900Z,66.25
2017-04-02T02:34:31.200Z,66.25
2017-04-02T02:35:19.590Z,66.27
2017-04-02T02:36:43.741Z,66.30
2017-04-02T02:37:29.648Z,65.70
2017-04-02T02:38:25.128Z,65.75
2017-04-02T02:39:32.830Z,65.62
2017-04-02T02:40:33.945Z,65.33
2017-04-02T02:41:33.151Z,64.82
2017-04-02T02:42:29.609Z,65.21
2017-04-02T02:43:24.366Z,65.51
2017-04-02T02:44:32.201Z,65.40
2017-04-02T02:45:26.121Z,65.26
2017-04-02T02:46:25.169Z,65.34
2017-04-02T02:47:33.307Z,65.47
2017-04-02T02:48:26.125Z,65.26
2017-04-02T02:49:38.105Z,65.45
2017-04-02T02:50:33.140Z,65.37
2017-04-02T02:51:33.225Z,65.80
2017-04-02T02:52:28.766Z,65.56
2017-04-02T02:53:24.099Z,65.35
2017-04-02T02:54:33.253Z,65.79
2017-04-02T02:55:36.145Z,65.82
2017-04-02T02:56:33.613Z,66.25
2017-04-02T02:57:23.137Z,66.23
2017-04-02T02:58:33.296Z,66.09
2017-04-02T02:59:26.183Z,65.77
2017-04-02T03:00:28.661Z,65.98
2017-04-02T03:01:31.483Z,66.09
2017-04-02T03:02:29.653Z,66.13
2017-04-02T03:03:28.768Z,65.84
2017-04-02T03:04:38.645Z,65.67
2017-04-02T03:05:28.789Z,65.04
2017-04-02T03:06:33.451Z,64.92
2017-04-02T03:07:28.283Z,64.90
2017-04-02T03:08:28.203Z,65.05
2017-04-02T03:09:28.403Z,65.29
2017-04-02T03:10:26.931Z,65.37
2017-04-02T03:11:33.283Z,65.54
2017-04-02T03:12:28.293Z,65.33
2017-04-02T03:13:28.476Z,64.93
2017-04-02T03:14:27.193Z,64.86
2017-04-02T03:15:29.398Z,65.24
2017-04-02T03:16:29.004Z,65.73
2017-04-02T03:17:25.220Z,65.77
2017-04-02T03:18:33.765Z,65.78
2017-04-02T03:19:28.862Z,65.80
2017-04-02T03:20:26.523Z,65.66
2017-04-02T03:21:26.382Z,65.46
2017-04-02T03:22:32.963Z,65.73
2017-04-02T03:23:23.137Z,65.77
2017-04-02T03:29:26.989Z,65.72
2017-04-02T03:34:28.666Z,65.54
2017-04-02T03:36:34.263Z,65.44
2017-04-02T03:40:28.055Z,66.12
2017-04-02T03:41:29.925Z,66.24
2017-04-02T03:42:26.049Z,65.95
2017-04-02T03:43:30.739Z,65.82
2017-04-02T03:44:32.998Z,66.10
2017-04-02T03:46:33.924Z,66.47
2017-04-02T03:48:29.357Z,66.25
2017-04-02T03:49:24.398Z,66.15
2017-04-02T03:50:33.198Z,65.70
2017-04-02T03:51:37.160Z,66.27
2017-04-02T03:52:29.299Z,66.05
2017-04-02T03:53:24.970Z,66.11
2017-04-02T03:54:26.807Z,66.53
2017-04-02T03:56:25.136Z,66.77
2017-04-02T03:57:40.503Z,66.49
2017-04-02T03:58:27.772Z,66.31
2017-04-02T03:59:25.226Z,66.36
2017-04-02T04:00:45.686Z,66.46
2017-04-02T04:01:28.923Z,66.82
2017-04-02T04:02:39.449Z,66.62
2017-04-02T04:03:26.240Z,66.46
2017-04-02T04:04:31.107Z,66.59
2017-04-02T04:05:27.366Z,66.78
2017-04-02T04:06:18.981Z,66.73
2017-04-02T04:07:28.148Z,66.73
2017-04-02T04:08:28.046Z,66.52
2017-04-02T04:09:37.927Z,66.41
2017-04-02T04:10:28.928Z,66.76
2017-04-02T04:15:28.005Z,67.40
2017-04-02T04:16:38.747Z,66.85
2017-04-02T04:17:29.030Z,66.80
2017-04-02T04:18:28.152Z,66.34
2017-04-02T04:21:37.738Z,66.59
2017-04-02T04:22:29.455Z,66.67
2017-04-02T04:23:26.270Z,66.40
2017-04-02T04:24:25.415Z,66.28
2017-04-02T04:25:38.425Z,65.98
2017-04-02T04:26:33.934Z,66.28
2017-04-02T04:33:26.069Z,67.43
2017-04-02T04:34:26.340Z,67.59
2017-04-02T04:35:26.788Z,67.74
2017-04-02T04:36:32.000Z,66.91
2017-04-02T04:37:28.812Z,66.94
2017-04-02T04:38:26.517Z,66.77
2017-04-02T04:40:28.085Z,66.79
2017-04-02T04:41:32.442Z,66.67
2017-04-02T04:42:28.536Z,66.84
2017-04-02T04:43:25.205Z,66.78
2017-04-02T04:44:34.039Z,67.38
2017-04-02T04:45:31.845Z,66.94
2017-04-02T04:46:28.933Z,67.14
2017-04-02T04:47:25.802Z,67.16
2017-04-02T04:48:33.718Z,67.28
2017-04-02T04:49:31.840Z,67.03
2017-04-02T04:50:28.490Z,66.82
2017-04-02T04:51:28.631Z,66.97
2017-04-02T04:52:30.166Z,66.80
2017-04-02T04:53:26.738Z,66.87
2017-04-02T04:54:29.833Z,66.51
2017-04-02T04:55:34.067Z,66.81
2017-04-02T04:59:34.401Z,67.23
2017-04-02T05:00:28.521Z,66.88
2017-04-02T05:01:32.084Z,67.00
2017-04-02T05:02:33.232Z,66.97
2017-04-02T05:03:30.117Z,66.68
2017-04-02T05:07:28.460Z,67.04
2017-04-02T05:08:33.224Z,66.92
2017-04-02T05:09:43.905Z,66.82
2017-04-02T05:10:38.776Z,67.21
2017-04-02T05:12:43.236Z,66.28
2017-04-02T05:14:33.089Z,66.71
2017-04-02T05:15:48.189Z,66.61
2017-04-02T05:18:29.674Z,66.75
2017-04-02T05:21:26.025Z,67.03
2017-04-02T05:22:33.752Z,67.43
2017-04-02T05:23:38.879Z,67.24
2017-04-02T05:24:28.529Z,67.67
2017-04-02T05:25:33.711Z,67.57
2017-04-02T05:26:25.461Z,67.24
2017-04-02T05:27:28.537Z,67.03
2017-04-02T05:28:27.328Z,67.23
2017-04-02T05:29:28.442Z,66.87
2017-04-02T05:30:28.007Z,66.56
2017-04-02T05:31:37.878Z,66.28
2017-04-02T05:32:25.354Z,66.56
2017-04-02T05:33:27.403Z,66.15
2017-04-02T05:34:29.664Z,66.42
2017-04-02T05:35:28.766Z,66.69
2017-04-02T05:41:28.162Z,66.32
2017-04-02T05:43:26.134Z,66.76
2017-04-02T05:48:24.905Z,67.00
2017-04-02T05:49:29.038Z,67.34
2017-04-02T05:50:33.405Z,66.76
2017-04-02T05:51:26.050Z,66.87
2017-04-02T05:52:25.145Z,66.56
2017-04-02T05:53:16.166Z,66.55
2017-04-02T05:54:29.223Z,66.20
2017-04-02T05:55:33.919Z,66.24
2017-04-02T05:56:33.937Z,66.28
2017-04-02T05:57:29.649Z,66.09
2017-04-02T05:58:34.648Z,65.97
2017-04-02T05:59:36.899Z,65.61
2017-04-02T06:00:38.569Z,65.63
2017-04-02T06:01:38.608Z,65.62
2017-04-02T06:02:39.059Z,65.41
2017-04-02T06:03:29.016Z,65.46
2017-04-02T06:04:33.955Z,65.58
2017-04-02T06:05:28.062Z,65.31
2017-04-02T06:06:29.127Z,65.35
2017-04-02T06:07:25.021Z,65.31
2017-04-02T06:08:32.756Z,65.84
2017-04-02T06:09:33.509Z,65.04
2017-04-02T06:10:33.190Z,65.20
2017-04-02T06:11:33.189Z,65.20
2017-04-02T06:12:26.527Z,65.09
2017-04-02T06:13:27.601Z,65.29
2017-04-02T06:14:31.207Z,65.48
2017-04-02T06:15:33.917Z,65.26
2017-04-02T06:16:26.226Z,64.62
2017-04-02T06:17:29.277Z,64.72
2017-04-02T06:18:33.324Z,64.84
2017-04-02T06:19:33.185Z,64.87
2017-04-02T06:20:22.407Z,65.07
2017-04-02T06:21:23.180Z,65.27
2017-04-02T06:22:31.710Z,65.52
2017-04-02T06:23:29.846Z,65.82
2017-04-02T06:24:29.888Z,65.72
2017-04-02T06:25:27.394Z,65.43
2017-04-02T06:26:39.203Z,65.44
2017-04-02T06:29:28.176Z,64.82
2017-04-02T06:30:31.766Z,65.14
2017-04-02T06:31:29.903Z,64.97
2017-04-02T06:32:29.024Z,64.94
2017-04-02T06:33:30.226Z,64.89
2017-04-02T06:34:33.326Z,64.54
2017-04-02T06:35:24.614Z,65.06
2017-04-02T06:36:33.184Z,65.14
2017-04-02T06:37:33.802Z,64.49
2017-04-02T06:38:38.764Z,64.40
2017-04-02T06:39:33.263Z,64.36
2017-04-02T06:40:29.585Z,64.15
2017-04-02T06:41:30.811Z,64.14
2017-04-02T06:42:27.308Z,64.22
2017-04-02T06:43:25.427Z,64.71
2017-04-02T06:44:29.903Z,64.54
2017-04-02T06:45:24.756Z,64.79
2017-04-02T06:46:27.909Z,63.97
2017-04-02T06:47:25.703Z,63.48
2017-04-02T06:48:26.674Z,63.63
2017-04-02T06:49:33.866Z,63.65
2017-04-02T06:50:34.006Z,63.32
2017-04-02T06:51:33.912Z,63.32
2017-04-02T06:52:29.066Z,63.35
2017-04-02T06:53:32.968Z,63.66
2017-04-02T06:54:28.389Z,63.36
2017-04-02T06:55:28.501Z,63.04
2017-04-02T06:56:26.888Z,62.97
2017-04-02T06:57:26.547Z,63.36
2017-04-02T06:58:30.966Z,63.38
2017-04-02T06:59:25.567Z,62.97
2017-04-02T07:00:29.624Z,63.09
2017-04-02T07:01:38.107Z,62.67
2017-04-02T07:02:38.092Z,62.64
2017-04-02T07:03:28.137Z,62.78
2017-04-02T07:04:29.920Z,62.81
2017-04-02T07:06:29.887Z,62.74
2017-04-02T07:08:26.509Z,62.81
2017-04-02T07:09:31.713Z,62.68
2017-04-02T07:10:28.978Z,62.54
2017-04-02T07:11:43.804Z,62.96
2017-04-02T07:16:27.815Z,62.69
2017-04-02T07:18:27.606Z,62.46
2017-04-02T07:19:28.490Z,62.51
2017-04-02T07:20:23.123Z,61.97
2017-04-02T07:25:38.212Z,62.74
2017-04-02T07:26:28.989Z,62.68
2017-04-02T07:28:26.456Z,62.86
2017-04-02T07:30:27.477Z,63.01
2017-04-02T07:35:30.236Z,62.30
2017-04-02T07:36:29.936Z,62.24
2017-04-02T07:37:29.007Z,62.26
2017-04-02T07:39:26.586Z,63.07
2017-04-02T07:40:25.169Z,63.43
2017-04-02T07:41:32.623Z,62.90
2017-04-02T07:42:27.406Z,62.79
2017-04-02T07:43:33.525Z,62.97
2017-04-02T07:44:26.613Z,62.85
2017-04-02T07:45:22.729Z,62.90
2017-04-02T07:47:28.554Z,62.62
2017-04-02T07:50:31.260Z,62.32
2017-04-02T07:51:40.477Z,61.99
2017-04-02T07:52:39.764Z,61.92
2017-04-02T07:53:26.235Z,62.28
2017-04-02T07:59:24.704Z,61.77
2017-04-02T08:02:33.773Z,61.61
2017-04-02T08:03:27.762Z,61.57
2017-04-02T08:04:27.725Z,61.45
2017-04-02T08:05:30.742Z,62.08
2017-04-02T08:06:26.669Z,62.11
2017-04-02T08:07:29.223Z,61.70
2017-04-02T08:08:29.225Z,61.38
2017-04-02T08:09:32.660Z,61.73
2017-04-02T08:10:28.335Z,61.50
2017-04-02T08:11:29.237Z,61.53
2017-04-02T08:12:28.384Z,62.05
2017-04-02T08:13:26.028Z,61.54
2017-04-02T08:14:26.062Z,61.70
2017-04-02T08:15:28.080Z,61.57
2017-04-02T08:16:38.215Z,61.51
2017-04-02T08:17:31.596Z,61.53
2017-04-02T08:18:31.679Z,61.55
2017-04-02T08:19:34.342Z,61.91
2017-04-02T08:20:39.790Z,62.03
2017-04-02T08:21:32.797Z,61.75
2017-04-02T08:22:25.808Z,62.04
2017-04-02T08:23:41.460Z,61.85
2017-04-02T08:24:28.707Z,62.03
2017-04-02T08:25:33.856Z,61.96
2017-04-02T08:26:25.792Z,62.08
2017-04-02T08:27:27.635Z,62.09
2017-04-02T08:38:32.921Z,61.90
2017-04-02T08:44:31.105Z,61.57
2017-04-02T08:50:29.289Z,61.88
2017-04-02T09:00:35.034Z,61.96
2017-04-02T09:01:23.093Z,62.03
2017-04-02T09:08:29.839Z,61.25
2017-04-02T09:10:31.553Z,61.30
2017-04-02T09:15:34.875Z,61.15
2017-04-02T09:17:17.743Z,61.27
2017-04-02T09:21:26.587Z,61.26
2017-04-02T09:24:34.658Z,61.46
2017-04-02T09:29:42.397Z,60.59
2017-04-02T09:30:39.167Z,60.83
2017-04-02T09:31:27.496Z,61.01
2017-04-02T09:36:39.158Z,60.43
2017-04-02T09:37:33.211Z,60.21
2017-04-02T09:41:21.640Z,60.30
2017-04-02T09:42:39.014Z,59.78
2017-04-02T09:43:25.298Z,59.49
2017-04-02T09:44:42.151Z,59.43
2017-04-02T09:45:33.145Z,59.62
2017-04-02T09:46:30.102Z,59.46
2017-04-02T09:47:30.193Z,60.89
2017-04-02T09:48:30.291Z,62.37
2017-04-02T09:50:37.119Z,60.33
2017-04-02T09:51:35.192Z,60.76
2017-04-02T10:07:30.995Z,59.96
2017-04-02T10:09:35.733Z,59.47
2017-04-02T10:09:36.271Z,58.83
2017-04-02T10:12:35.465Z,58.95
2017-04-02T10:13:28.578Z,60.22
2017-04-02T10:15:38.876Z,58.87
2017-04-02T10:16:27.995Z,58.76
2017-04-02T10:24:24.776Z,58.40
2017-04-02T10:25:26.556Z,58.12
2017-04-02T10:26:26.076Z,58.41
2017-04-02T10:43:33.162Z,57.00
2017-04-02T10:45:42.037Z,56.35
2017-04-02T10:46:28.234Z,56.82
2017-04-02T10:47:28.293Z,57.03
2017-04-02T10:48:34.391Z,57.98
2017-04-02T10:49:26.887Z,58.08
2017-04-02T10:51:33.153Z,58.71
2017-04-02T10:52:38.492Z,57.11
2017-04-02T10:53:32.040Z,56.66
2017-04-02T10:54:28.191Z,57.78
2017-04-02T10:55:33.917Z,57.48
2017-04-02T10:56:26.034Z,56.96
2017-04-02T10:57:29.722Z,56.27
2017-04-02T10:58:29.863Z,56.93
2017-04-02T10:59:37.273Z,56.73
2017-04-02T11:00:38.027Z,56.72
2017-04-02T11:01:26.173Z,56.96
2017-04-02T11:02:25.171Z,56.93
2017-04-02T11:03:26.847Z,56.77
2017-04-02T11:05:39.741Z,57.85
2017-04-02T11:06:27.554Z,57.75
2017-04-02T11:07:26.017Z,57.72
2017-04-02T11:08:29.504Z,55.84
2017-04-02T11:10:33.414Z,57.56
2017-04-02T11:12:27.436Z,59.05
2017-04-02T11:13:33.581Z,56.53
2017-04-02T11:17:29.035Z,57.56
2017-04-02T11:18:27.138Z,57.45
2017-04-02T11:19:24.263Z,56.78
2017-04-02T11:20:36.551Z,57.51
2017-04-02T11:21:37.201Z,56.58
2017-04-02T11:22:28.780Z,56.65
2017-04-02T11:23:30.903Z,56.61
2017-04-02T11:24:26.359Z,56.45
2017-04-02T11:25:28.588Z,57.35
2017-04-02T11:26:26.139Z,57.17
2017-04-02T11:27:28.306Z,57.49
2017-04-02T11:28:27.642Z,57.61
2017-04-02T11:29:33.440Z,57.28
2017-04-02T11:30:43.465Z,58.46
2017-04-02T11:31:32.129Z,57.57
2017-04-02T11:32:29.420Z,57.37
2017-04-02T11:33:29.891Z,56.81
2017-04-02T11:34:32.949Z,57.28
2017-04-02T11:35:27.059Z,57.50
2017-04-02T11:36:34.327Z,58.09
2017-04-02T11:37:29.762Z,57.80
2017-04-02T11:38:26.346Z,57.23
2017-04-02T11:39:35.357Z,56.65
2017-04-02T11:41:26.862Z,56.35
2017-04-02T11:42:17.867Z,55.32
2017-04-02T11:43:23.442Z,55.94
2017-04-02T11:44:28.532Z,55.99
2017-04-02T11:45:28.865Z,56.67
2017-04-02T11:46:31.401Z,57.10
2017-04-02T11:47:23.684Z,55.66
2017-04-02T11:48:33.619Z,55.35
2017-04-02T11:49:36.330Z,55.14
2017-04-02T11:50:28.358Z,54.91
2017-04-02T11:51:38.808Z,55.94
2017-04-02T11:52:38.929Z,56.14
2017-04-02T11:53:50.261Z,55.06
2017-04-02T11:57:38.315Z,52.98
2017-04-02T11:58:31.800Z,53.49
2017-04-02T11:59:19.829Z,54.44
2017-04-02T12:02:42.656Z,55.07
2017-04-02T12:03:31.298Z,54.96
2017-04-02T12:05:37.236Z,56.46
2017-04-02T12:08:28.587Z,54.26
2017-04-02T12:10:43.013Z,53.88
2017-04-02T12:11:28.792Z,53.74
2017-04-02T12:12:34.118Z,53.41
2017-04-02T12:13:44.260Z,55.64
2017-04-02T12:14:33.824Z,54.69
2017-04-02T12:15:36.679Z,56.13
2017-04-02T12:16:28.965Z,54.64
2017-04-02T12:17:26.476Z,54.09
2017-04-02T12:18:26.214Z,54.28
2017-04-02T12:22:38.162Z,54.29
2017-04-02T12:35:28.402Z,53.70
2017-04-02T12:36:37.540Z,52.32
2017-04-02T12:37:28.671Z,53.06
2017-04-02T12:38:26.065Z,53.49
2017-04-02T12:40:29.112Z,53.44
2017-04-02T12:42:27.624Z,53.08
2017-04-02T12:43:28.754Z,52.40
2017-04-02T12:44:36.922Z,52.26
2017-04-02T12:47:28.039Z,51.90
2017-04-02T12:50:28.618Z,53.12
2017-04-02T12:51:39.122Z,53.13
2017-04-02T12:52:28.621Z,54.05
2017-04-02T12:53:23.210Z,54.18
2017-04-02T12:57:23.850Z,56.04
2017-04-02T13:00:38.485Z,52.48
2017-04-02T13:01:43.853Z,52.53
2017-04-02T13:03:21.515Z,52.95
2017-04-02T13:04:29.742Z,53.39
2017-04-02T13:05:28.352Z,53.91
2017-04-02T13:10:27.273Z,52.04
2017-04-02T13:11:29.628Z,50.77
2017-04-02T13:12:41.203Z,51.09
2017-04-02T13:19:37.456Z,52.74
2017-04-02T13:20:32.130Z,51.47
2017-04-02T13:21:28.803Z,49.28
2017-04-02T13:23:33.196Z,48.18
2017-04-02T13:24:25.470Z,46.86
2017-04-02T13:42:26.472Z,44.70
2017-04-02T13:50:26.845Z,44.97
2017-04-02T13:51:29.899Z,46.05
2017-04-02T13:53:28.708Z,46.90
2017-04-02T13:54:28.838Z,46.95
2017-04-02T13:55:28.624Z,46.68
2017-04-02T13:56:27.366Z,47.07
2017-04-02T13:57:28.397Z,46.83
2017-04-02T13:58:28.632Z,46.56
2017-04-02T13:59:29.458Z,46.49
2017-04-02T14:00:28.569Z,45.33
2017-04-02T14:01:31.393Z,44.66
2017-04-02T14:02:28.213Z,44.99
2017-04-02T14:03:28.302Z,44.72
2017-04-02T14:04:28.199Z,44.64
2017-04-02T14:05:26.853Z,44.84
2017-04-02T14:06:38.842Z,44.53
2017-04-02T14:07:25.533Z,44.10
2017-04-02T14:08:33.074Z,44.33
2017-04-02T14:12:29.625Z,45.24
2017-04-02T14:13:44.971Z,44.32
2017-04-02T14:14:32.746Z,43.97
2017-04-02T14:15:29.511Z,43.53
2017-04-02T14:16:26.600Z,43.23
2017-04-02T14:17:27.628Z,43.56
2017-04-02T14:18:26.465Z,43.57
2017-04-02T14:19:39.131Z,42.87
2017-04-02T14:20:28.191Z,42.36
2017-04-02T14:21:28.239Z,42.78
2017-04-02T14:22:26.736Z,42.83
2017-04-02T14:23:28.815Z,42.76
2017-04-02T14:24:38.806Z,42.66
2017-04-02T14:25:28.534Z,42.03
2017-04-02T14:26:28.728Z,41.63
2017-04-02T14:27:33.591Z,41.59
2017-04-02T14:28:27.379Z,41.59
2017-04-02T14:29:26.991Z,42.46
2017-04-02T14:30:28.361Z,41.90
2017-04-02T14:31:28.219Z,41.14
2017-04-02T14:32:28.726Z,41.78
2017-04-02T14:33:38.237Z,42.70
2017-04-02T14:34:28.433Z,42.47
2017-04-02T14:35:28.133Z,41.32
2017-04-02T14:36:42.467Z,41.61
2017-04-02T14:37:28.914Z,42.62
2017-04-02T14:38:29.010Z,43.07
2017-04-02T14:39:25.076Z,43.08
2017-04-02T14:40:29.036Z,43.80
2017-04-02T14:41:28.615Z,43.33
2017-04-02T14:43:28.254Z,42.55
2017-04-02T14:44:29.321Z,42.85
2017-04-02T14:45:22.978Z,43.24
2017-04-02T14:46:28.439Z,43.10
2017-04-02T14:47:32.674Z,42.66
2017-04-02T14:48:26.628Z,42.06
2017-04-02T14:49:29.753Z,42.66
2017-04-02T14:50:25.905Z,41.11
2017-04-02T14:51:28.996Z,40.84
2017-04-02T14:52:33.936Z,42.03
2017-04-02T14:53:32.437Z,41.14
2017-04-02T14:54:22.328Z,40.90
2017-04-02T14:55:29.424Z,41.98
2017-04-02T14:56:33.473Z,40.87
2017-04-02T14:57:30.594Z,40.62
2017-04-02T14:58:28.737Z,40.15
2017-04-02T14:59:26.673Z,41.63
2017-04-02T15:00:26.853Z,40.26
2017-04-02T15:01:25.278Z,40.34
2017-04-02T15:02:33.388Z,40.24
2017-04-02T15:03:37.702Z,39.44
2017-04-02T15:04:27.207Z,39.30
2017-04-02T15:05:26.820Z,37.74
2017-04-02T15:06:33.259Z,38.63
2017-04-02T15:07:30.654Z,37.99
2017-04-02T15:08:28.685Z,38.51
2017-04-02T15:10:27.358Z,37.36
2017-04-02T15:11:28.205Z,36.75
2017-04-02T15:12:25.466Z,36.29
2017-04-02T15:13:24.688Z,36.32
2017-04-02T15:14:24.120Z,36.56
2017-04-02T15:15:33.778Z,36.61
2017-04-02T15:16:23.480Z,36.62
2017-04-02T15:17:28.718Z,36.96
2017-04-02T15:18:28.812Z,36.88
2017-04-02T15:19:28.935Z,37.06
2017-04-02T15:20:29.904Z,37.35
2017-04-02T15:21:26.376Z,37.27
2017-04-02T15:22:27.548Z,37.00
2017-04-02T15:23:29.154Z,36.37
2017-04-02T15:24:33.254Z,37.84
2017-04-02T15:25:28.335Z,38.32
2017-04-02T15:26:27.060Z,38.55
2017-04-02T15:27:24.786Z,37.44
2017-04-02T15:28:31.838Z,37.49
2017-04-02T15:29:29.039Z,37.65
2017-04-02T15:30:37.303Z,37.33
2017-04-02T15:31:33.597Z,36.73
2017-04-02T15:32:27.968Z,36.71
2017-04-02T15:33:28.073Z,36.17
2017-04-02T15:34:28.210Z,36.84
2017-04-02T15:35:33.500Z,35.66
2017-04-02T15:36:32.554Z,35.08
2017-04-02T15:37:28.493Z,35.99
2017-04-02T15:38:28.690Z,35.34
2017-04-02T15:40:32.234Z,35.67
2017-04-02T15:41:32.321Z,35.12
2017-04-02T15:42:24.976Z,34.91
2017-04-02T15:43:29.094Z,34.14
2017-04-02T15:44:26.143Z,33.95
2017-04-02T15:45:24.213Z,33.94
2017-04-02T15:46:32.991Z,34.55
2017-04-02T15:47:38.088Z,34.70
2017-04-02T15:48:31.573Z,34.80
2017-04-02T15:49:37.434Z,34.40
2017-04-02T15:50:29.309Z,34.10
2017-04-02T15:51:36.990Z,34.19
2017-04-02T15:52:28.363Z,34.19
2017-04-02T15:53:32.053Z,34.13
2017-04-02T15:54:29.757Z,33.99
2017-04-02T15:55:27.526Z,34.18
2017-04-02T15:56:27.130Z,33.99
2017-04-02T15:57:32.596Z,34.12
2017-04-02T15:58:29.762Z,34.06
2017-04-02T15:59:33.750Z,34.26
2017-04-02T16:00:35.960Z,34.00
2017-04-02T16:01:29.133Z,33.55
2017-04-02T16:02:28.280Z,34.51
2017-04-02T16:03:33.396Z,34.94
2017-04-02T16:04:28.513Z,34.47
2017-04-02T16:10:28.800Z,37.40
2017-04-02T16:11:28.987Z,37.64
2017-04-02T16:12:38.514Z,38.41
2017-04-02T16:13:33.202Z,38.95
2017-04-02T16:14:29.041Z,39.06
2017-04-02T16:15:25.719Z,39.92
2017-04-02T16:16:27.722Z,39.88
2017-04-02T16:17:26.607Z,40.74
2017-04-02T16:18:28.697Z,40.57
2017-04-02T16:19:31.908Z,40.35
2017-04-02T16:20:28.341Z,39.73
2017-04-02T16:21:20.936Z,39.63
2017-04-02T16:22:28.350Z,40.67
2017-04-02T16:23:28.461Z,41.11
2017-04-02T16:24:23.024Z,41.10
2017-04-02T16:25:24.564Z,41.07
2017-04-02T16:26:38.004Z,40.88
2017-04-02T16:27:33.121Z,40.59
2017-04-02T16:28:29.555Z,40.38
2017-04-02T16:29:36.661Z,39.99
2017-04-02T16:30:27.657Z,39.64
2017-04-02T16:31:38.041Z,38.79
2017-04-02T16:32:28.812Z,38.90
2017-04-02T16:33:28.980Z,38.75
2017-04-02T16:34:27.139Z,39.31
2017-04-02T16:35:29.404Z,39.29
2017-04-02T16:36:28.328Z,38.74
2017-04-02T16:39:24.204Z,38.84
2017-04-02T16:40:33.592Z,39.13
2017-04-02T16:41:33.751Z,40.15
2017-04-02T16:42:28.290Z,40.25
2017-04-02T16:43:29.043Z,39.63
2017-04-02T16:44:28.140Z,39.47
2017-04-02T16:45:24.390Z,39.42
2017-04-02T16:46:29.643Z,40.15
2017-04-02T16:47:28.985Z,40.86
2017-04-02T16:48:24.515Z,40.65
2017-04-02T16:49:26.774Z,41.40
2017-04-02T16:50:28.802Z,42.00
2017-04-02T16:51:26.170Z,41.29
2017-04-02T16:52:28.638Z,41.36
2017-04-02T16:53:28.957Z,41.51
2017-04-02T16:54:38.377Z,41.58
2017-04-02T16:55:33.155Z,41.73
2017-04-02T16:56:29.031Z,41.62
2017-04-02T16:57:28.151Z,41.79
2017-04-02T16:58:27.596Z,42.10
2017-04-02T16:59:25.733Z,41.77
2017-04-02T17:00:27.732Z,43.55
2017-04-02T17:01:28.790Z,42.44
2017-04-02T17:02:21.901Z,42.84
2017-04-02T17:03:32.546Z,42.52
2017-04-02T17:04:27.415Z,42.28
2017-04-02T17:05:39.095Z,42.15
2017-04-02T17:06:28.104Z,41.60
2017-04-02T17:07:42.477Z,42.11
2017-04-02T17:08:23.046Z,42.12
2017-04-02T17:10:28.279Z,41.36
2017-04-02T17:11:34.521Z,41.11
2017-04-02T17:12:26.535Z,41.02
2017-04-02T17:13:32.375Z,41.12
2017-04-02T17:14:28.496Z,41.50
2017-04-02T17:15:33.170Z,41.40
2017-04-02T17:16:28.387Z,41.51
2017-04-02T17:17:27.252Z,42.06
2017-04-02T17:18:36.438Z,42.56
2017-04-02T17:19:29.004Z,42.84
2017-04-02T17:20:43.062Z,42.57
2017-04-02T17:22:33.802Z,42.95
2017-04-02T17:23:33.927Z,42.89
2017-04-02T17:24:23.995Z,43.19
2017-04-02T17:25:33.252Z,43.71
2017-04-02T17:26:29.405Z,43.51
2017-04-02T17:27:33.755Z,43.67
2017-04-02T17:28:44.193Z,43.92
2017-04-02T17:29:35.268Z,45.02
2017-04-02T17:30:26.105Z,44.52
2017-04-02T17:31:28.147Z,44.31
2017-04-02T17:32:28.245Z,44.01
2017-04-02T17:33:25.709Z,43.84
2017-04-02T17:34:29.824Z,44.68
2017-04-02T17:35:28.987Z,44.96
2017-04-02T17:36:38.003Z,44.60
2017-04-02T17:37:32.629Z,45.17
2017-04-02T17:38:26.373Z,44.41
2017-04-02T17:41:29.436Z,43.97
2017-04-02T17:42:32.058Z,44.32
2017-04-02T17:43:28.184Z,44.33
2017-04-02T17:44:35.354Z,44.55
2017-04-02T17:45:11.889Z,44.40
2017-04-02T17:46:10.194Z,44.53
2017-04-02T17:47:33.471Z,44.44
2017-04-02T17:48:23.036Z,44.55
2017-04-02T17:49:32.229Z,44.95
2017-04-02T17:50:29.349Z,44.92
2017-04-02T17:51:31.481Z,44.96
2017-04-02T17:52:29.059Z,44.93
2017-04-02T17:53:23.922Z,45.18
2017-04-02T17:54:26.634Z,45.41
2017-04-02T17:55:38.823Z,45.84
2017-04-02T17:56:27.844Z,45.93
2017-04-02T17:57:33.569Z,46.37
2017-04-02T17:58:24.109Z,47.53
2017-04-02T17:59:14.171Z,47.44
2017-04-02T18:00:11.799Z,47.71
2017-04-02T18:01:28.197Z,48.10
2017-04-02T18:02:26.619Z,48.22
2017-04-02T18:03:39.126Z,48.47
2017-04-02T18:04:38.124Z,48.63
2017-04-02T18:05:29.628Z,48.85
2017-04-02T18:06:25.025Z,49.03
2017-04-02T18:07:28.207Z,49.10
2017-04-02T18:08:30.079Z,49.34
2017-04-02T18:10:27.574Z,49.51
2017-04-02T18:11:33.914Z,49.46
2017-04-02T18:12:29.094Z,49.51
2017-04-02T18:13:33.295Z,49.51
2017-04-02T18:14:15.283Z,49.75
2017-04-02T18:15:18.103Z,49.91
2017-04-02T18:16:23.075Z,49.97
2017-04-02T18:17:29.868Z,50.11
2017-04-02T18:18:27.557Z,50.32
2017-04-02T18:19:37.919Z,50.52
2017-04-02T18:20:34.312Z,50.43
2017-04-02T18:21:28.712Z,50.28
2017-04-02T18:22:25.246Z,50.35
2017-04-02T18:23:38.359Z,50.34
2017-04-02T18:24:27.485Z,50.60
2017-04-02T18:25:26.359Z,50.91
2017-04-02T18:26:32.386Z,51.09
2017-04-02T18:27:29.065Z,51.19
2017-04-02T18:28:28.206Z,51.19
2017-04-02T18:29:36.764Z,51.01
2017-04-02T18:30:32.517Z,51.00
2017-04-02T18:31:28.816Z,51.11